Time;durP1;ratioP1;P1;durP2;ratioP2;P2;SDS_P1;SDS_P2;PMS_P1;PMS_P2;Temp;Humidity;BMP_temperature;BMP_pressure;BME280_temperature;BME280_humidity;BME280_pressure;Samples;Min_cycle;Max_cycle;Signal;HPM_P1;HPM_P2
2021/08/25 00:00:28;;;;;;;0.10;0.10;;;19.00;63.10;;;;;;4960117;28;20085;-93
2021/08/25 00:02:53;;;;;;;0.10;0.10;;;19.00;63.20;;;;;;4960327;28;20093;-92
2021/08/25 00:05:19;;;;;;;0.10;0.10;;;19.00;62.90;;;;;;4959600;28;20423;-92
2021/08/25 00:07:45;;;;;;;0.00;0.00;;;19.00;63.10;;;;;;4959868;28;20043;-92
2021/08/25 00:10:11;;;;;;;0.10;0.10;;;19.00;62.70;;;;;;4959792;28;20031;-92
2021/08/25 00:12:38;;;;;;;0.00;0.00;;;19.00;62.70;;;;;;4961651;28;20046;-92
2021/08/25 00:15:05;;;;;;;0.05;0.05;;;19.00;62.50;;;;;;4965710;28;20099;-91
2021/08/25 00:17:31;;;;;;;0.00;0.00;;;19.00;62.10;;;;;;4975043;28;20400;-92
2021/08/25 00:19:56;;;;;;;0.00;0.00;;;19.00;61.80;;;;;;4960596;28;20041;-92
2021/08/25 00:22:22;;;;;;;0.10;0.10;;;19.00;61.50;;;;;;4959258;28;20097;-92
2021/08/25 00:24:48;;;;;;;0.10;0.10;;;19.10;61.50;;;;;;4959519;28;20031;-92
2021/08/25 00:27:14;;;;;;;0.10;0.10;;;19.10;61.30;;;;;;4959565;28;20053;-92
2021/08/25 00:29:40;;;;;;;0.10;0.10;;;19.10;61.30;;;;;;4959731;28;20043;-93
2021/08/25 00:32:06;;;;;;;0.00;0.00;;;19.20;61.50;;;;;;4959830;28;20120;-92
2021/08/25 00:34:32;;;;;;;0.00;0.00;;;19.20;61.20;;;;;;4959292;28;20043;-93
2021/08/25 00:36:58;;;;;;;0.08;0.08;;;19.30;61.70;;;;;;4963073;28;20031;-92
2021/08/25 00:39:24;;;;;;;0.00;0.00;;;19.30;61.90;;;;;;4969810;28;20039;-92
2021/08/25 00:41:50;;;;;;;0.00;0.00;;;19.30;61.90;;;;;;4959014;28;20122;-92
2021/08/25 00:44:16;;;;;;;0.10;0.10;;;19.40;62.20;;;;;;4959316;28;20101;-92
2021/08/25 00:46:44;;;;;;;0.00;0.00;;;19.40;62.20;;;;;;4959580;28;20047;-92
2021/08/25 00:49:16;;;;;;;0.00;0.00;;;19.30;62.20;;;;;;4960085;28;20066;-93
2021/08/25 00:51:45;;;;;;;0.00;0.00;;;19.30;62.40;;;;;;4962618;28;20098;-92
2021/08/25 00:54:12;;;;;;;0.00;0.00;;;19.40;62.60;;;;;;4968088;28;20130;-93
2021/08/25 00:56:38;;;;;;;0.00;0.00;;;19.40;62.80;;;;;;4958501;28;20042;-93
2021/08/25 00:59:05;;;;;;;0.00;0.00;;;19.30;62.90;;;;;;4959618;28;20039;-93
2021/08/25 01:01:54;;;;;;;0.00;0.00;;;19.40;63.20;;;;;;4976251;28;20499;-93
2021/08/25 01:04:30;;;;;;;0.08;0.08;;;19.30;63.20;;;;;;4959007;28;20110;-92
2021/08/25 01:06:57;;;;;;;0.00;0.00;;;19.40;63.40;;;;;;4968615;28;20050;-93
2021/08/25 01:09:23;;;;;;;0.00;0.00;;;19.30;63.40;;;;;;4962888;28;20130;-93
2021/08/25 01:11:49;;;;;;;0.00;0.00;;;19.30;63.70;;;;;;4959639;28;20117;-93
2021/08/25 01:14:16;;;;;;;0.00;0.00;;;19.30;63.70;;;;;;4969281;28;20050;-93
2021/08/25 01:16:43;;;;;;;0.00;0.00;;;19.40;63.90;;;;;;4960054;28;20031;-92
2021/08/25 01:19:14;;;;;;;0.00;0.00;;;19.30;64.00;;;;;;4959905;28;20105;-93
2021/08/25 01:21:41;;;;;;;0.00;0.00;;;19.40;64.20;;;;;;4958670;28;20030;-93
2021/08/25 01:24:10;;;;;;;0.00;0.00;;;19.30;64.20;;;;;;4959576;28;20043;-92
2021/08/25 01:26:35;;;;;;;0.00;0.00;;;19.30;64.30;;;;;;4963939;28;20073;-92
2021/08/25 01:29:02;;;;;;;0.00;0.00;;;19.40;64.40;;;;;;4960280;28;20492;-92
2021/08/25 01:31:28;;;;;;;0.00;0.00;;;19.30;64.40;;;;;;4965029;28;20031;-92
2021/08/25 01:34:12;;;;;;;0.00;0.00;;;19.30;64.60;;;;;;4975841;28;20081;-92
2021/08/25 01:36:38;;;;;;;0.00;0.00;;;19.30;65.10;;;;;;4962440;28;20035;-92
2021/08/25 01:39:04;;;;;;;0.10;0.10;;;19.30;65.00;;;;;;4958491;28;20511;-93
2021/08/25 01:41:29;;;;;;;0.00;0.00;;;19.40;65.20;;;;;;4957976;28;20173;-93
2021/08/25 01:44:00;;;;;;;0.00;0.00;;;19.40;65.40;;;;;;4958358;28;20077;-93
2021/08/25 01:46:29;;;;;;;0.00;0.00;;;19.40;65.60;;;;;;4958324;28;20138;-93
2021/08/25 01:48:56;;;;;;;0.00;0.00;;;19.50;65.60;;;;;;4959341;28;20058;-93
2021/08/25 01:51:38;;;;;;;0.00;0.00;;;19.50;65.50;;;;;;4959524;28;20046;-93
2021/08/25 01:54:05;;;;;;;0.10;0.10;;;19.60;65.40;;;;;;4965375;28;20071;-94
2021/08/25 01:56:31;;;;;;;0.00;0.00;;;19.50;64.70;;;;;;4961063;28;20031;-94
2021/08/25 01:58:58;;;;;;;0.00;0.00;;;19.50;64.40;;;;;;4958751;28;20049;-93
2021/08/25 02:01:24;;;;;;;0.00;0.00;;;19.40;64.20;;;;;;4957957;28;20035;-93
2021/08/25 02:03:50;;;;;;;0.00;0.00;;;19.30;64.00;;;;;;4959194;28;20043;-93
2021/08/25 02:06:16;;;;;;;0.00;0.00;;;19.20;64.00;;;;;;4975714;28;20109;-93
2021/08/25 02:08:42;;;;;;;0.30;0.00;;;19.10;64.00;;;;;;4962427;28;20513;-93
2021/08/25 02:11:08;;;;;;;0.00;0.00;;;19.00;64.10;;;;;;4965122;28;20120;-93
2021/08/25 02:13:34;;;;;;;0.00;0.00;;;18.90;64.10;;;;;;4958060;28;20101;-92
2021/08/25 02:15:59;;;;;;;0.10;0.10;;;18.80;64.20;;;;;;4975014;28;20110;-93
2021/08/25 02:18:25;;;;;;;0.00;0.00;;;18.80;64.20;;;;;;4957980;28;20051;-93
2021/08/25 02:20:51;;;;;;;0.00;0.00;;;18.70;64.30;;;;;;4957676;28;20033;-93
2021/08/25 02:23:16;;;;;;;0.00;0.00;;;18.70;64.30;;;;;;4957640;28;20050;-93
2021/08/25 02:25:42;;;;;;;0.00;0.00;;;18.70;64.20;;;;;;4957827;28;20046;-93
2021/08/25 02:28:08;;;;;;;0.10;0.10;;;18.70;64.20;;;;;;4960949;28;20042;-93
2021/08/25 02:30:34;;;;;;;0.00;0.00;;;18.70;64.00;;;;;;4969028;28;20038;-92
2021/08/25 02:33:00;;;;;;;0.10;0.10;;;18.80;63.90;;;;;;4961306;28;20121;-92
2021/08/25 02:35:26;;;;;;;0.00;0.00;;;18.80;63.70;;;;;;4957911;28;20066;-93
2021/08/25 02:37:52;;;;;;;0.10;0.10;;;18.70;63.70;;;;;;4957777;28;20070;-93
2021/08/25 02:40:18;;;;;;;0.00;0.00;;;18.80;63.70;;;;;;4974830;28;20034;-93
2021/08/25 02:42:44;;;;;;;0.00;0.00;;;18.80;63.70;;;;;;4957720;28;20043;-93
2021/08/25 02:45:10;;;;;;;0.00;0.00;;;18.90;63.60;;;;;;4964478;28;20027;-93
2021/08/25 02:47:35;;;;;;;0.10;0.10;;;18.90;63.70;;;;;;4982781;28;20051;-92
2021/08/25 02:50:01;;;;;;;0.10;0.10;;;18.90;63.60;;;;;;4971914;28;20063;-93
2021/08/25 02:52:27;;;;;;;0.00;0.00;;;19.00;63.40;;;;;;4973275;28;20095;-93
2021/08/25 02:54:53;;;;;;;0.08;0.08;;;19.00;63.40;;;;;;4966929;28;20058;-93
2021/08/25 02:57:18;;;;;;;0.00;0.00;;;19.10;63.20;;;;;;4958134;28;20098;-92
2021/08/25 02:59:44;;;;;;;0.03;0.03;;;19.10;63.10;;;;;;4957280;28;20035;-93
2021/08/25 03:02:10;;;;;;;0.00;0.00;;;19.20;63.10;;;;;;4974251;28;20034;-92
2021/08/25 03:04:36;;;;;;;0.00;0.00;;;19.30;63.10;;;;;;4957251;28;20129;-92
2021/08/25 03:07:01;;;;;;;0.00;0.00;;;19.30;63.50;;;;;;4957234;28;20042;-92
2021/08/25 03:09:27;;;;;;;0.00;0.00;;;19.40;62.90;;;;;;4957054;28;20027;-93
2021/08/25 03:11:53;;;;;;;0.10;0.10;;;19.50;63.00;;;;;;4957020;28;20042;-92
2021/08/25 03:14:19;;;;;;;0.05;0.05;;;19.50;63.00;;;;;;4967578;28;20397;-92
2021/08/25 03:16:44;;;;;;;0.10;0.10;;;19.60;63.00;;;;;;4962148;28;20396;-93
2021/08/25 03:19:10;;;;;;;0.00;0.00;;;19.60;62.80;;;;;;4957789;28;20046;-92
2021/08/25 03:21:36;;;;;;;0.00;0.00;;;19.70;62.70;;;;;;4959882;28;20399;-92
2021/08/25 03:24:01;;;;;;;0.10;0.10;;;19.80;62.60;;;;;;4960964;28;20042;-93
2021/08/25 03:26:27;;;;;;;0.00;0.00;;;19.80;62.60;;;;;;4960302;28;20049;-92
2021/08/25 03:28:53;;;;;;;0.00;0.00;;;19.90;62.60;;;;;;4960468;28;20481;-92
2021/08/25 03:31:19;;;;;;;0.10;0.10;;;19.90;62.50;;;;;;4960319;28;20035;-92
2021/08/25 03:33:45;;;;;;;0.00;0.00;;;20.00;62.40;;;;;;4964787;28;20078;-92
2021/08/25 03:36:10;;;;;;;0.10;0.10;;;20.00;62.80;;;;;;4966795;28;20043;-92
2021/08/25 03:38:36;;;;;;;0.03;0.03;;;20.00;62.00;;;;;;4960343;28;20130;-92
2021/08/25 03:41:02;;;;;;;0.00;0.00;;;20.00;62.00;;;;;;4960412;28;20035;-93
2021/08/25 03:43:27;;;;;;;0.00;0.00;;;20.10;61.90;;;;;;4960842;28;20074;-93
2021/08/25 03:45:53;;;;;;;0.10;0.10;;;20.10;61.90;;;;;;4960975;28;20043;-93
2021/08/25 03:48:19;;;;;;;0.00;0.00;;;20.10;62.00;;;;;;4971067;28;20131;-92
2021/08/25 03:50:50;;;;;;;0.00;0.00;;;20.00;62.10;;;;;;4976746;28;20031;-94
2021/08/25 03:53:20;;;;;;;0.60;0.10;;;19.80;63.70;;;;;;4966868;28;20122;-93
2021/08/25 03:55:46;;;;;;;0.00;0.00;;;19.40;64.50;;;;;;4974404;23;20477;-93
2021/08/25 03:58:12;;;;;;;0.10;0.10;;;19.10;65.20;;;;;;4974656;28;20042;-93
2021/08/25 04:00:41;;;;;;;0.00;0.00;;;19.00;65.60;;;;;;4960141;28;20038;-94
2021/08/25 04:03:07;;;;;;;0.10;0.10;;;18.90;66.00;;;;;;4959862;28;20119;-93
2021/08/25 04:05:33;;;;;;;0.00;0.00;;;18.80;66.00;;;;;;4958990;28;20070;-94
2021/08/25 04:07:59;;;;;;;0.00;0.00;;;18.80;66.20;;;;;;4959389;28;20034;-94
2021/08/25 04:10:25;;;;;;;0.00;0.00;;;18.80;66.20;;;;;;4967682;28;20083;-94
2021/08/25 04:12:53;;;;;;;0.00;0.00;;;18.70;66.30;;;;;;4976147;28;20042;-94
2021/08/25 04:15:19;;;;;;;0.00;0.00;;;18.80;66.40;;;;;;4963805;28;20041;-95
2021/08/25 04:17:45;;;;;;;0.00;0.00;;;18.70;66.40;;;;;;4974664;28;20023;-94
2021/08/25 04:20:11;;;;;;;0.00;0.00;;;18.70;66.30;;;;;;4968357;28;20047;-91
2021/08/25 04:22:37;;;;;;;0.10;0.10;;;18.90;66.30;;;;;;4959709;28;20046;-90
2021/08/25 04:25:03;;;;;;;0.00;0.00;;;18.90;66.00;;;;;;4959429;28;20031;-91
2021/08/25 04:27:29;;;;;;;0.08;0.08;;;19.00;65.90;;;;;;4961560;28;20054;-91
2021/08/25 04:29:54;;;;;;;0.10;0.10;;;19.00;66.00;;;;;;4973326;28;20031;-91
2021/08/25 04:32:20;;;;;;;0.05;0.05;;;19.00;66.20;;;;;;4961546;28;20129;-91
2021/08/25 04:34:46;;;;;;;0.00;0.00;;;18.90;66.40;;;;;;4959090;28;20043;-91
2021/08/25 04:37:11;;;;;;;0.00;0.00;;;19.00;66.50;;;;;;4959260;28;20503;-90
2021/08/25 04:39:37;;;;;;;0.00;0.00;;;19.10;66.40;;;;;;4979554;28;20089;-90
2021/08/25 04:42:03;;;;;;;0.10;0.10;;;19.20;66.10;;;;;;4959389;28;20039;-90
2021/08/25 04:44:29;;;;;;;0.00;0.00;;;19.30;65.90;;;;;;4958931;28;20043;-90
2021/08/25 04:46:54;;;;;;;0.00;0.00;;;19.30;66.00;;;;;;4958831;28;20046;-89
2021/08/25 04:49:20;;;;;;;0.00;0.00;;;19.30;66.10;;;;;;4959007;28;20444;-90
2021/08/25 04:51:46;;;;;;;0.10;0.10;;;19.40;65.80;;;;;;4958196;28;20035;-90
2021/08/25 04:54:11;;;;;;;0.00;0.00;;;19.40;65.70;;;;;;4960618;28;20046;-90
2021/08/25 04:56:37;;;;;;;0.00;0.00;;;19.50;65.70;;;;;;4959903;28;20066;-90
2021/08/25 04:59:03;;;;;;;0.00;0.00;;;19.60;65.40;;;;;;4956927;28;20121;-91
2021/08/25 05:01:28;;;;;;;0.00;0.00;;;19.60;65.40;;;;;;4956724;28;20077;-90
2021/08/25 05:03:54;;;;;;;0.05;0.05;;;19.70;65.40;;;;;;4956524;28;20041;-90
2021/08/25 05:06:20;;;;;;;0.10;0.10;;;19.80;65.10;;;;;;4956833;28;20047;-91
2021/08/25 05:08:45;;;;;;;0.08;0.08;;;19.90;64.70;;;;;;4956784;28;20041;-90
2021/08/25 05:11:11;;;;;;;0.00;0.00;;;20.00;64.40;;;;;;4958417;28;20488;-90
2021/08/25 05:13:38;;;;;;;0.10;0.10;;;20.10;64.40;;;;;;4961294;28;20035;-90
2021/08/25 05:16:14;;;;;;;0.00;0.00;;;20.10;64.10;;;;;;4978481;28;20479;-90
2021/08/25 05:18:40;;;;;;;0.00;0.00;;;20.20;64.20;;;;;;4978293;28;20030;-90
2021/08/25 05:21:07;;;;;;;0.00;0.00;;;20.20;64.30;;;;;;4958429;28;20043;-91
2021/08/25 05:23:32;;;;;;;0.10;0.00;;;20.30;64.20;;;;;;4958713;28;20035;-90
2021/08/25 05:25:58;;;;;;;0.00;0.00;;;20.50;64.10;;;;;;4958240;28;20124;-90
2021/08/25 05:28:24;;;;;;;0.00;0.00;;;20.60;63.90;;;;;;4958957;28;20037;-90
2021/08/25 05:30:50;;;;;;;0.00;0.00;;;20.80;63.80;;;;;;4958741;28;20043;-90
2021/08/25 05:33:16;;;;;;;0.00;0.00;;;20.90;63.50;;;;;;4975382;28;20397;-90
2021/08/25 05:35:42;;;;;;;0.00;0.00;;;21.10;63.40;;;;;;4959604;28;20050;-90
2021/08/25 05:38:08;;;;;;;0.00;0.00;;;21.10;63.10;;;;;;4958052;28;20035;-90
2021/08/25 05:40:33;;;;;;;0.00;0.00;;;21.20;63.00;;;;;;4957367;28;20089;-91
2021/08/25 05:42:59;;;;;;;0.00;0.00;;;21.20;63.00;;;;;;4974162;28;20034;-91
2021/08/25 05:45:25;;;;;;;0.00;0.00;;;21.20;62.90;;;;;;4955751;28;20035;-91
2021/08/25 05:47:52;;;;;;;0.00;0.00;;;21.30;62.80;;;;;;4956584;28;20506;-90
2021/08/25 05:50:18;;;;;;;0.00;0.00;;;21.40;62.90;;;;;;4956818;28;20488;-91
2021/08/25 05:52:44;;;;;;;0.00;0.00;;;21.50;62.80;;;;;;4974611;28;20504;-91
2021/08/25 05:55:10;;;;;;;0.00;0.00;;;21.50;62.80;;;;;;4969230;28;20026;-91
2021/08/25 05:57:41;;;;;;;0.05;0.05;;;21.60;62.80;;;;;;4979638;28;20067;-91
2021/08/25 06:00:09;;;;;;;0.03;0.03;;;21.70;63.40;;;;;;4966512;28;20031;-91
2021/08/25 06:02:35;;;;;;;0.00;0.00;;;21.80;62.70;;;;;;4956048;28;20118;-90
2021/08/25 06:05:13;;;;;;;0.00;0.00;;;21.80;62.60;;;;;;4959548;28;20063;-93
2021/08/25 06:07:42;;;;;;;0.00;0.00;;;21.90;62.50;;;;;;4958625;28;20263;-91
2021/08/25 06:10:08;;;;;;;0.00;0.00;;;22.00;62.30;;;;;;4963586;28;20026;-93
2021/08/25 06:12:34;;;;;;;0.10;0.10;;;22.00;62.10;;;;;;4964134;28;20039;-93
2021/08/25 06:15:29;;;;;;;0.00;0.00;;;22.00;62.00;;;;;;4959565;28;20061;-93
2021/08/25 07:10:46;;;;;;;0.00;0.00;;;23.10;63.60;;;;;;4895755;29;20063;-90
2021/08/25 07:23:04;;;;;;;0.00;0.00;;;23.00;64.10;;;;;;4886294;29;20051;-90
2021/08/25 07:54:20;;;;;;;0.00;0.00;;;23.60;65.20;;;;;;5067403;23;20043;-91
2021/08/25 08:00:09;;;;;;;0.00;0.00;;;23.50;64.80;;;;;;4998725;23;20133;-91
2021/08/25 08:02:35;;;;;;;0.00;0.00;;;23.50;65.00;;;;;;4958534;28;20065;-90
2021/08/25 08:05:02;;;;;;;0.00;0.00;;;23.50;65.20;;;;;;4959123;28;20492;-89
2021/08/25 08:07:31;;;;;;;0.00;0.00;;;23.50;65.20;;;;;;4958307;28;20046;-92
2021/08/25 08:09:57;;;;;;;0.00;0.00;;;23.60;65.00;;;;;;4973071;28;20046;-92
2021/08/25 08:12:22;;;;;;;0.00;0.00;;;23.70;64.90;;;;;;4983134;28;20027;-91
2021/08/25 08:14:48;;;;;;;0.10;0.10;;;23.80;64.50;;;;;;4983687;28;20055;-91
2021/08/25 08:17:16;;;;;;;0.00;0.00;;;24.10;64.20;;;;;;4977899;28;20038;-91
2021/08/25 08:19:45;;;;;;;0.00;0.00;;;24.30;63.80;;;;;;4974924;28;20043;-92
2021/08/25 08:22:20;;;;;;;0.00;0.00;;;24.50;63.50;;;;;;4972467;28;20072;-91
2021/08/25 08:24:46;;;;;;;0.00;0.00;;;24.60;63.20;;;;;;4964423;28;20049;-91
2021/08/25 08:27:18;;;;;;;0.00;0.00;;;24.60;62.80;;;;;;4959731;28;20411;-92
2021/08/25 08:29:44;;;;;;;0.00;0.00;;;24.60;63.00;;;;;;4959629;28;20063;-92
2021/08/25 08:32:10;;;;;;;0.00;0.00;;;24.60;63.00;;;;;;4963473;28;20043;-92
2021/08/25 08:34:38;;;;;;;0.00;0.00;;;24.70;62.80;;;;;;4958050;28;20142;-92
2021/08/25 08:37:04;;;;;;;0.00;0.00;;;24.70;62.80;;;;;;4959551;28;20035;-93
2021/08/25 08:39:31;;;;;;;0.00;0.00;;;24.70;62.70;;;;;;4962003;28;20038;-92
2021/08/25 08:41:57;;;;;;;0.00;0.00;;;24.60;62.60;;;;;;4975915;28;20077;-91
2021/08/25 08:44:25;;;;;;;0.00;0.00;;;24.50;62.70;;;;;;4961101;28;20041;-91
2021/08/25 08:46:51;;;;;;;0.00;0.00;;;24.40;62.80;;;;;;4961297;28;20473;-90
2021/08/25 08:49:17;;;;;;;0.00;0.00;;;24.30;63.00;;;;;;4958453;28;20051;-89
2021/08/25 08:51:44;;;;;;;0.00;0.00;;;24.20;63.30;;;;;;4959397;28;20034;-91
2021/08/25 08:54:13;;;;;;;0.00;0.00;;;24.20;63.90;;;;;;4973954;28;20359;-90
2021/08/25 08:56:44;;;;;;;0.00;0.00;;;24.10;64.30;;;;;;4956346;28;20094;-89
2021/08/25 08:59:10;;;;;;;0.00;0.00;;;24.10;64.40;;;;;;4956506;28;20066;-90
2021/08/25 09:01:35;;;;;;;0.00;0.00;;;24.10;64.60;;;;;;4959098;28;20058;-89
2021/08/25 09:04:01;;;;;;;0.00;0.00;;;24.10;64.90;;;;;;4957126;28;20027;-88
2021/08/25 09:06:44;;;;;;;0.00;0.00;;;24.20;64.80;;;;;;4941306;28;20055;-90
2021/08/25 09:09:10;;;;;;;0.00;0.00;;;24.20;64.70;;;;;;4958517;28;20030;-90
2021/08/25 09:11:51;;;;;;;0.00;0.00;;;24.10;64.60;;;;;;4975320;28;20045;-90
2021/08/25 09:14:19;;;;;;;0.00;0.00;;;23.90;64.80;;;;;;4978672;28;20035;-89
2021/08/25 09:16:45;;;;;;;0.00;0.00;;;23.70;65.10;;;;;;4957405;28;20471;-90
2021/08/25 09:19:17;;;;;;;0.00;0.00;;;23.60;65.30;;;;;;4955603;28;20035;-90
2021/08/25 09:21:46;;;;;;;0.47;0.00;;;23.50;65.70;;;;;;4957951;28;20437;-89
2021/08/25 09:24:13;;;;;;;0.00;0.00;;;23.50;66.10;;;;;;4988301;28;20063;-89
2021/08/25 09:27:09;;;;;;;0.00;0.00;;;23.40;66.10;;;;;;4981004;28;20059;-90
2021/08/25 09:29:41;;;;;;;0.00;0.00;;;23.40;66.40;;;;;;4974881;28;20042;-89
2021/08/25 09:32:28;;;;;;;0.08;0.00;;;23.40;66.20;;;;;;4957034;28;20137;-91
2021/08/25 09:35:01;;;;;;;0.00;0.00;;;23.40;66.30;;;;;;4941726;28;20117;-92
2021/08/25 09:37:28;;;;;;;0.00;0.00;;;23.50;66.20;;;;;;4953738;28;20500;-91
2021/08/25 09:42:59;;;;;;;0.00;0.00;;;23.80;65.80;;;;;;5301311;23;20063;-90
2021/08/25 09:45:49;;;;;;;0.00;0.00;;;23.80;65.60;;;;;;4918330;29;20099;-90
2021/08/25 09:49:01;;;;;;;0.00;0.00;;;23.80;65.50;;;;;;4922457;29;20092;-89
2021/08/25 09:51:55;;;;;;;0.00;0.00;;;23.70;65.60;;;;;;4900577;29;20043;-89
2021/08/25 09:54:29;;;;;;;0.00;0.00;;;23.70;65.70;;;;;;4915221;29;20094;-90
2021/08/25 09:56:55;;;;;;;0.10;0.10;;;23.70;65.70;;;;;;4905878;29;20071;-91
2021/08/25 09:59:24;;;;;;;0.00;0.00;;;23.80;65.50;;;;;;4899654;29;20051;-91
2021/08/25 10:01:52;;;;;;;0.00;0.00;;;23.80;65.30;;;;;;4894717;29;20127;-89
2021/08/25 10:04:21;;;;;;;0.00;0.00;;;23.80;65.50;;;;;;4895367;29;20063;-90
2021/08/25 10:06:57;;;;;;;0.00;0.00;;;23.70;65.60;;;;;;4895119;29;20048;-90
2021/08/25 10:09:24;;;;;;;0.00;0.00;;;23.70;65.70;;;;;;4905509;29;20050;-90
2021/08/25 10:11:59;;;;;;;0.00;0.00;;;23.80;65.90;;;;;;4934509;29;20265;-91
2021/08/25 10:14:30;;;;;;;0.00;0.00;;;24.00;65.40;;;;;;4933381;29;20509;-93
2021/08/25 10:16:56;;;;;;;0.00;0.00;;;24.10;64.90;;;;;;4935502;29;20087;-91
2021/08/25 10:19:36;;;;;;;0.00;0.00;;;24.20;64.60;;;;;;4935548;29;20035;-91
2021/08/25 10:22:16;;;;;;;0.00;0.00;;;24.20;64.40;;;;;;4937396;29;20035;-92
2021/08/25 10:24:54;;;;;;;0.00;0.00;;;24.70;64.60;;;;;;4936433;29;20058;-91
2021/08/25 10:27:22;;;;;;;0.00;0.00;;;25.30;63.20;;;;;;4933665;29;20043;-89
2021/08/25 10:30:10;;;;;;;0.00;0.00;;;25.70;62.00;;;;;;4952059;28;20039;-91
2021/08/25 10:32:58;;;;;;;0.00;0.00;;;25.80;61.50;;;;;;4937041;29;20628;-92
2021/08/25 10:35:27;;;;;;;0.00;0.00;;;25.90;60.80;;;;;;4939907;29;20046;-91
2021/08/25 10:38:16;;;;;;;0.00;0.00;;;25.90;60.60;;;;;;4957763;29;20100;-89
2021/08/25 10:40:41;;;;;;;0.00;0.00;;;25.90;59.80;;;;;;4944106;29;20189;-91
2021/08/25 10:43:07;;;;;;;0.00;0.00;;;26.00;60.30;;;;;;4943679;29;20058;-89
2021/08/25 10:45:55;;;;;;;0.00;0.00;;;26.10;60.00;;;;;;4948999;28;20070;-90
2021/08/25 10:48:48;;;;;;;0.03;0.00;;;26.10;59.70;;;;;;4962040;28;20038;-92
2021/08/25 10:51:26;;;;;;;0.10;0.10;;;26.20;59.50;;;;;;4961965;28;20090;-92
2021/08/25 10:53:51;;;;;;;0.00;0.00;;;26.30;59.10;;;;;;4948141;29;20039;-92
2021/08/25 10:56:28;;;;;;;0.00;0.00;;;26.40;58.80;;;;;;4940862;29;20073;-91
2021/08/25 10:59:02;;;;;;;0.00;0.00;;;26.50;58.40;;;;;;4951975;29;20036;-93
2021/08/25 11:01:37;;;;;;;0.00;0.00;;;26.50;58.40;;;;;;4954518;29;20047;-93
2021/08/25 11:04:12;;;;;;;0.00;0.00;;;26.40;58.20;;;;;;4945698;29;20134;-92
2021/08/25 11:06:51;;;;;;;0.00;0.00;;;26.50;58.10;;;;;;4942566;29;20102;-90
2021/08/25 11:09:19;;;;;;;0.00;0.00;;;26.80;58.00;;;;;;4958508;29;20118;-92
2021/08/25 11:11:57;;;;;;;0.05;0.05;;;27.20;58.10;;;;;;4943172;29;20082;-93
2021/08/25 11:14:25;;;;;;;0.00;0.00;;;27.80;57.20;;;;;;4939518;29;20094;-92
2021/08/25 11:16:52;;;;;;;0.00;0.00;;;28.20;56.20;;;;;;4941042;29;20031;-92
2021/08/25 11:19:27;;;;;;;0.00;0.00;;;28.50;55.60;;;;;;4957642;29;20063;-91
2021/08/25 11:21:55;;;;;;;0.00;0.00;;;28.60;54.70;;;;;;4941390;29;20050;-89
2021/08/25 11:24:21;;;;;;;0.00;0.00;;;29.00;54.60;;;;;;4942621;29;20134;-92
2021/08/25 11:26:48;;;;;;;0.00;0.00;;;29.60;54.20;;;;;;4950031;28;20067;-93
2021/08/25 11:29:21;;;;;;;0.00;0.00;;;31.00;54.10;;;;;;4965935;28;20066;-93
2021/08/25 11:31:49;;;;;;;0.00;0.00;;;32.60;51.90;;;;;;4963516;29;20069;-89
2021/08/25 11:34:15;;;;;;;0.00;0.00;;;34.30;50.70;;;;;;4946496;29;20043;-91
2021/08/25 11:36:52;;;;;;;0.00;0.00;;;35.40;47.70;;;;;;4945300;29;20039;-93
2021/08/25 11:39:21;;;;;;;0.10;0.10;;;35.80;45.80;;;;;;4942516;29;20045;-91
2021/08/25 11:42:03;;;;;;;0.00;0.00;;;36.10;46.30;;;;;;5091794;27;20440;-91
2021/08/25 11:44:43;;;;;;;0.10;0.10;;;36.70;45.40;;;;;;5106929;28;20032;-91
2021/08/25 11:47:14;;;;;;;0.00;0.00;;;37.00;42.60;;;;;;5092918;28;20115;-91
2021/08/25 11:49:40;;;;;;;0.00;0.00;;;37.20;44.20;;;;;;5090439;28;20025;-92
2021/08/25 11:52:08;;;;;;;0.00;0.00;;;37.50;44.00;;;;;;5092530;28;20029;-91
2021/08/25 11:54:35;;;;;;;0.00;0.00;;;38.20;43.10;;;;;;5090722;28;20384;-92
2021/08/25 11:57:01;;;;;;;0.05;0.05;;;38.70;42.60;;;;;;5087147;28;20020;-91
2021/08/25 11:59:27;;;;;;;0.10;0.10;;;39.20;42.30;;;;;;5085794;28;20046;-92
2021/08/25 12:02:06;;;;;;;0.10;0.10;;;39.70;41.50;;;;;;5087006;28;20040;-91
2021/08/25 12:04:32;;;;;;;0.00;0.00;;;39.90;40.60;;;;;;5090365;28;20020;-92
2021/08/25 12:06:58;;;;;;;0.10;0.10;;;39.20;41.00;;;;;;5091206;28;20028;-90
2021/08/25 12:09:32;;;;;;;0.10;0.10;;;38.40;40.90;;;;;;5090764;28;20020;-92
2021/08/25 12:11:58;;;;;;;0.00;0.00;;;38.00;41.00;;;;;;5092090;28;20037;-92
2021/08/25 12:14:24;;;;;;;0.08;0.08;;;38.00;42.00;;;;;;5091604;28;20158;-92
2021/08/25 12:17:07;;;;;;;0.00;0.00;;;38.50;41.70;;;;;;5092574;28;20032;-92
2021/08/25 12:19:36;;;;;;;0.10;0.10;;;38.90;40.80;;;;;;5092455;28;20043;-92
2021/08/25 12:22:20;;;;;;;0.10;0.10;;;39.20;41.10;;;;;;5097112;28;20092;-91
2021/08/25 12:24:46;;;;;;;0.00;0.00;;;39.60;40.30;;;;;;5114985;28;20020;-91
2021/08/25 12:27:13;;;;;;;0.00;0.00;;;39.40;40.70;;;;;;5114041;28;20080;-90
2021/08/25 12:29:42;;;;;;;0.00;0.00;;;38.70;40.40;;;;;;5102359;28;20031;-90
2021/08/25 12:32:08;;;;;;;0.00;0.00;;;37.70;40.60;;;;;;5089746;28;20040;-92
2021/08/25 12:34:53;;;;;;;0.10;0.10;;;36.40;41.70;;;;;;5089545;28;20533;-91
2021/08/25 12:37:21;;;;;;;0.00;0.00;;;35.20;42.90;;;;;;5090629;28;20024;-92
2021/08/25 12:39:47;;;;;;;0.00;0.00;;;34.40;44.00;;;;;;5088841;28;20093;-92
2021/08/25 12:42:12;;;;;;;0.00;0.00;;;34.00;44.70;;;;;;5090796;28;20154;-91
2021/08/25 12:44:38;;;;;;;0.00;0.00;;;33.70;44.90;;;;;;5089325;28;20027;-91
2021/08/25 12:47:05;;;;;;;0.00;0.00;;;33.60;45.20;;;;;;5094253;28;20021;-90
2021/08/25 12:49:33;;;;;;;0.00;0.00;;;33.40;45.30;;;;;;5090905;28;20020;-91
2021/08/25 12:51:59;;;;;;;0.00;0.00;;;33.20;45.60;;;;;;5084629;28;20024;-89
2021/08/25 12:54:26;;;;;;;0.00;0.00;;;33.10;45.70;;;;;;5089883;22;20045;-92
2021/08/25 12:56:52;;;;;;;0.00;0.00;;;32.90;46.00;;;;;;5076036;28;20020;-91
2021/08/25 12:59:19;;;;;;;0.00;0.00;;;32.90;46.60;;;;;;5072712;28;20478;-89
2021/08/25 13:01:45;;;;;;;0.00;0.00;;;34.00;46.60;;;;;;5074334;28;20471;-91
2021/08/25 13:04:12;;;;;;;0.00;0.00;;;35.20;45.50;;;;;;5075010;28;20063;-91
2021/08/25 13:06:38;;;;;;;0.00;0.00;;;36.10;44.40;;;;;;5078355;28;20093;-92
2021/08/25 13:09:05;;;;;;;0.00;0.00;;;36.10;43.40;;;;;;5077497;28;20036;-91
2021/08/25 13:11:31;;;;;;;0.00;0.00;;;35.60;43.90;;;;;;5078416;28;20405;-93
2021/08/25 13:13:56;;;;;;;0.00;0.00;;;34.90;44.40;;;;;;5080050;28;20028;-91
2021/08/25 13:16:22;;;;;;;0.00;0.00;;;34.90;45.10;;;;;;5080215;28;20119;-91
2021/08/25 13:18:48;;;;;;;0.00;0.00;;;35.40;44.80;;;;;;5093467;28;20016;-92
2021/08/25 13:21:14;;;;;;;0.00;0.00;;;36.20;44.30;;;;;;5089210;28;20044;-91
2021/08/25 13:23:42;;;;;;;0.00;0.00;;;36.60;44.00;;;;;;5097982;28;20020;-92
2021/08/25 13:26:08;;;;;;;0.00;0.00;;;37.20;43.60;;;;;;5099346;28;20013;-90
2021/08/25 13:28:34;;;;;;;0.00;0.00;;;37.80;43.20;;;;;;5077664;28;20082;-92
2021/08/25 13:31:00;;;;;;;0.00;0.00;;;38.30;42.90;;;;;;5080383;28;20036;-89
2021/08/25 13:33:27;;;;;;;0.00;0.00;;;38.60;42.50;;;;;;5081558;28;20492;-91
2021/08/25 13:35:53;;;;;;;0.00;0.00;;;38.60;42.40;;;;;;5080045;28;20020;-91
2021/08/25 13:38:19;;;;;;;0.00;0.00;;;38.50;42.60;;;;;;5081234;28;20032;-91
2021/08/25 13:40:45;;;;;;;0.00;0.00;;;38.10;42.60;;;;;;5078270;28;20405;-92
2021/08/25 13:43:11;;;;;;;0.00;0.00;;;37.60;43.00;;;;;;5079509;28;20111;-91
2021/08/25 13:45:37;;;;;;;0.00;0.00;;;37.00;43.60;;;;;;5082709;28;20428;-91
2021/08/25 13:48:11;;;;;;;0.00;0.00;;;36.30;44.40;;;;;;5085690;28;20170;-92
2021/08/25 13:50:37;;;;;;;0.00;0.00;;;36.10;45.00;;;;;;5078542;28;20082;-92
2021/08/25 13:53:02;;;;;;;0.00;0.00;;;36.40;45.00;;;;;;5074610;28;20028;-93
2021/08/25 13:56:01;;;;;;;0.00;0.00;;;36.90;44.80;;;;;;5080540;28;20040;-92
2021/08/25 13:58:44;;;;;;;0.00;0.00;;;37.60;44.40;;;;;;5082170;28;20027;-92
2021/08/25 14:01:10;;;;;;;0.00;0.00;;;38.10;43.70;;;;;;5106773;22;20043;-91
2021/08/25 14:03:35;;;;;;;0.00;0.00;;;38.00;43.50;;;;;;5094590;28;20032;-92
2021/08/25 14:06:01;;;;;;;0.00;0.00;;;37.50;43.70;;;;;;5095843;28;20113;-91
2021/08/25 14:08:27;;;;;;;0.00;0.00;;;36.60;44.30;;;;;;5093409;28;20495;-91
2021/08/25 14:10:53;;;;;;;0.00;0.00;;;35.70;45.40;;;;;;5094316;28;20028;-91
2021/08/25 14:13:19;;;;;;;0.00;0.00;;;35.30;46.00;;;;;;5093678;28;20020;-92
2021/08/25 14:15:45;;;;;;;0.00;0.00;;;35.20;46.30;;;;;;5093978;28;20111;-91
2021/08/25 14:18:11;;;;;;;0.00;0.00;;;34.70;46.60;;;;;;5093695;28;20465;-92
2021/08/25 14:20:36;;;;;;;0.00;0.00;;;34.10;47.40;;;;;;5114187;28;20050;-92
2021/08/25 14:23:03;;;;;;;0.00;0.00;;;33.30;48.20;;;;;;5115772;28;20035;-90
2021/08/25 14:25:29;;;;;;;0.00;0.00;;;32.50;48.90;;;;;;5095121;28;20401;-91
2021/08/25 14:27:55;;;;;;;0.00;0.00;;;32.00;49.80;;;;;;5103595;28;20016;-91
2021/08/25 14:30:21;;;;;;;0.00;0.00;;;31.40;50.10;;;;;;5118735;28;20016;-90
2021/08/25 14:32:46;;;;;;;0.00;0.00;;;31.10;50.60;;;;;;5118041;28;20038;-90